Randolph, VT

5:17 AM EDT on August 31, 2014 (GMT -0400)
Knapp State | Change Station
CLOSE
Current Station
Airport
Location: Montpelier,
Elevation: 1165 ft
Nearby Weather Stations

Elev 1165 ft 44.20 °N, 72.56 °W | Updated 26 minutes ago

Partly Cloudy
Partly Cloudy
65 °F
Feels Like 65 °F
N
9
Wind Variable Wind from SSE

Today
High -- | Low -- °F
--% Chance of Precip.
Yesterday
High -- | Low -- °F
Precip. -- in
6:12 AM 7:28 PM
Waxing Crescent, 29% visible
Pressure 30.04 in
Visibility 10.0 miles
Clouds Few 10000 ft
Dew Point 61 °F
Humidity 87%
Rainfall 0.00 in
Snow Depth Not available.
UV 0 out of 12
Pollen 7.90 out of 12
Ozone Good
PM2.5 Good
Flu Activity Not available.
METAR KMPV 310851Z AUTO 16008KT 10SM FEW100 18/16 A3005 RMK AO2 SLP172 T01830161 58007

More Conditions Fewer Conditions

Pressure 30.04 in
Visibility 10.0 miles
Clouds Few 10000 ft
Dew Point 61 °F
Humidity 87%
Rainfall 0.00 in
Snow Depth Not available.
UV 0 out of 12
Pollen 7.90 out of 12
Ozone Good
PM2.5 Good
Flu Activity Not available.
METAR KMPV 310851Z AUTO 16008KT 10SM FEW100 18/16 A3005 RMK AO2 SLP172 T01830161 58007

More Conditions Fewer Conditions

10-Day Weather Forecast

Almanac

Astronomy

Aug. 31, 2014 Rise Set
Actual Time 6:12 AM EDT 7:28 PM EDT
Civil Twilight 5:42 AM EDT 7:57 PM EDT
Nautical Twilight 5:07 AM EDT 8:33 PM EDT
Astronomical Twilight 4:29 AM EDT 9:11 PM EDT
Moon 12:08 PM EDT 10:28 PM EDT
Length of Visible Light 14h 14m
Length of Day
13h 15m
Tomorrow will be 2m 54s shorter.
Waxing Crescent, 29% of the Moon is Illuminated
Today
Waxing Crescent
Sep 2
First Quarter
Sep 8
Full
Sep 15
Last Quarter
Sep 24
New

Today's Extremes

State Highs State Lows

Community

WunderPhotos

Upload Photos

1,748,834 photos uploaded!

Nearby

Air Quality

  Air Quality AQ Index Pollutant
Yesterday Good
OZONE
Yesterday Good
PM2.5
Current Good
OZONE
Current Good
PM2.5
Sunday Good
PM2.5
Sunday Good
OZONE
Monday Good
PM2.5
Tuesday Good
PM2.5

Snow Depth

Station Depth Elevation
No new snow has been reported.

Earthquake Activity

City Distance Mag. Time & Date
No recent earthquake activity has been reported nearby.
Minimum magnitude displayed is 2.5.

Coastal Water Temperatures

Place Temperature
No Stations Reporting

Nearby Weather Stations